sensor_id;sensor_type;location;lat;lon;timestamp;pressure;altitude;pressure_sealevel;temperature;humidity
38812;BME280;24553;51.640;-0.752;2023-02-15T00:01:16;101935.69;;;0.38;100.00
38812;BME280;24553;51.640;-0.752;2023-02-15T00:03:41;101932.75;;;0.28;100.00
38812;BME280;24553;51.640;-0.752;2023-02-15T00:06:07;101929.50;;;0.25;100.00
38812;BME280;24553;51.640;-0.752;2023-02-15T00:08:32;101933.22;;;0.20;100.00
38812;BME280;24553;51.640;-0.752;2023-02-15T00:11:09;101925.94;;;0.26;100.00
38812;BME280;24553;51.640;-0.752;2023-02-15T00:13:35;101928.97;;;0.34;100.00
38812;BME280;24553;51.640;-0.752;2023-02-15T00:16:10;101915.75;;;0.37;100.00
38812;BME280;24553;51.640;-0.752;2023-02-15T00:18:36;101910.44;;;0.38;100.00
38812;BME280;24553;51.640;-0.752;2023-02-15T00:21:08;101901.00;;;0.36;100.00
38812;BME280;24553;51.640;-0.752;2023-02-15T00:23:33;101893.19;;;0.36;100.00
38812;BME280;24553;51.640;-0.752;2023-02-15T00:26:10;101886.28;;;0.35;100.00
38812;BME280;24553;51.640;-0.752;2023-02-15T00:28:37;101882.75;;;0.36;100.00
38812;BME280;24553;51.640;-0.752;2023-02-15T00:33:29;101880.69;;;0.27;100.00
38812;BME280;24553;51.640;-0.752;2023-02-15T00:35:58;101879.19;;;0.22;100.00
38812;BME280;24553;51.640;-0.752;2023-02-15T00:38:23;101879.38;;;0.19;100.00
38812;BME280;24553;51.640;-0.752;2023-02-15T00:40:56;101877.34;;;0.25;100.00
38812;BME280;24553;51.640;-0.752;2023-02-15T00:43:22;101877.16;;;0.28;100.00
38812;BME280;24553;51.640;-0.752;2023-02-15T00:45:48;101870.25;;;0.27;100.00
38812;BME280;24553;51.640;-0.752;2023-02-15T00:48:13;101863.53;;;0.22;100.00
38812;BME280;24553;51.640;-0.752;2023-02-15T00:50:39;101860.00;;;0.24;100.00
38812;BME280;24553;51.640;-0.752;2023-02-15T00:53:05;101855.50;;;0.26;100.00
38812;BME280;24553;51.640;-0.752;2023-02-15T00:55:30;101852.91;;;0.26;100.00
38812;BME280;24553;51.640;-0.752;2023-02-15T00:57:56;101854.69;;;0.25;100.00
38812;BME280;24553;51.640;-0.752;2023-02-15T01:00:21;101850.97;;;0.29;100.00
38812;BME280;24553;51.640;-0.752;2023-02-15T01:02:47;101854.59;;;0.41;100.00
38812;BME280;24553;51.640;-0.752;2023-02-15T01:05:12;101851.72;;;0.46;100.00
38812;BME280;24553;51.640;-0.752;2023-02-15T01:07:38;101846.78;;;0.41;100.00
38812;BME280;24553;51.640;-0.752;2023-02-15T01:10:07;101851.16;;;0.40;100.00
38812;BME280;24553;51.640;-0.752;2023-02-15T01:12:33;101847.66;;;0.41;100.00
38812;BME280;24553;51.640;-0.752;2023-02-15T01:14:58;101839.97;;;0.38;100.00
38812;BME280;24553;51.640;-0.752;2023-02-15T01:17:24;101832.16;;;0.38;100.00
38812;BME280;24553;51.640;-0.752;2023-02-15T01:19:49;101827.78;;;0.39;100.00
38812;BME280;24553;51.640;-0.752;2023-02-15T01:22:16;101822.00;;;0.34;100.00
38812;BME280;24553;51.640;-0.752;2023-02-15T01:24:42;101817.97;;;0.28;100.00
38812;BME280;24553;51.640;-0.752;2023-02-15T01:27:07;101809.69;;;0.21;100.00
38812;BME280;24553;51.640;-0.752;2023-02-15T01:29:32;101805.56;;;0.17;100.00
38812;BME280;24553;51.640;-0.752;2023-02-15T01:31:58;101799.53;;;0.17;100.00
38812;BME280;24553;51.640;-0.752;2023-02-15T01:34:23;101797.94;;;0.14;100.00
38812;BME280;24553;51.640;-0.752;2023-02-15T01:36:48;101796.28;;;0.13;100.00
38812;BME280;24553;51.640;-0.752;2023-02-15T01:39:14;101796.91;;;0.17;100.00
38812;BME280;24553;51.640;-0.752;2023-02-15T01:41:40;101794.03;;;0.21;100.00
38812;BME280;24553;51.640;-0.752;2023-02-15T01:47:15;101788.25;;;0.16;100.00
38812;BME280;24553;51.640;-0.752;2023-02-15T01:49:41;101780.78;;;0.10;100.00
38812;BME280;24553;51.640;-0.752;2023-02-15T01:52:08;101782.28;;;0.00;100.00
38812;BME280;24553;51.640;-0.752;2023-02-15T01:54:36;101786.06;;;-0.06;100.00
38812;BME280;24553;51.640;-0.752;2023-02-15T01:57:07;101789.25;;;-0.01;100.00
38812;BME280;24553;51.640;-0.752;2023-02-15T01:59:35;101788.59;;;-0.04;100.00
38812;BME280;24553;51.640;-0.752;2023-02-15T02:02:02;101791.00;;;-0.01;100.00
38812;BME280;24553;51.640;-0.752;2023-02-15T02:04:39;101785.16;;;-0.05;100.00
38812;BME280;24553;51.640;-0.752;2023-02-15T02:07:07;101786.19;;;-0.07;100.00
38812;BME280;24553;51.640;-0.752;2023-02-15T02:09:34;101779.19;;;-0.07;100.00
38812;BME280;24553;51.640;-0.752;2023-02-15T02:12:00;101783.56;;;-0.07;100.00
38812;BME280;24553;51.640;-0.752;2023-02-15T02:14:26;101787.53;;;-0.16;100.00
38812;BME280;24553;51.640;-0.752;2023-02-15T02:28:01;101779.78;;;-0.32;100.00
38812;BME280;24553;51.640;-0.752;2023-02-15T02:34:03;101770.34;;;-0.34;100.00
38812;BME280;24553;51.640;-0.752;2023-02-15T02:39:28;101772.38;;;-0.39;100.00
38812;BME280;24553;51.640;-0.752;2023-02-15T02:42:17;101764.38;;;-0.36;100.00
38812;BME280;24553;51.640;-0.752;2023-02-15T02:44:51;101767.84;;;-0.36;100.00
38812;BME280;24553;51.640;-0.752;2023-02-15T02:47:39;101758.53;;;-0.40;100.00
38812;BME280;24553;51.640;-0.752;2023-02-15T02:50:09;101754.41;;;-0.44;100.00
38812;BME280;24553;51.640;-0.752;2023-02-15T02:55:17;101757.94;;;-0.45;100.00
38812;BME280;24553;51.640;-0.752;2023-02-15T03:00:38;101750.06;;;-0.43;100.00
38812;BME280;24553;51.640;-0.752;2023-02-15T03:03:10;101740.28;;;-0.40;100.00
38812;BME280;24553;51.640;-0.752;2023-02-15T03:05:41;101737.50;;;-0.37;100.00
38812;BME280;24553;51.640;-0.752;2023-02-15T03:08:09;101733.56;;;-0.44;100.00
38812;BME280;24553;51.640;-0.752;2023-02-15T03:10:37;101728.34;;;-0.44;100.00
38812;BME280;24553;51.640;-0.752;2023-02-15T03:13:03;101721.28;;;-0.42;100.00
38812;BME280;24553;51.640;-0.752;2023-02-15T03:15:36;101720.44;;;-0.42;100.00
38812;BME280;24553;51.640;-0.752;2023-02-15T03:18:25;101720.19;;;-0.38;100.00
38812;BME280;24553;51.640;-0.752;2023-02-15T03:20:53;101701.19;;;-0.40;100.00
38812;BME280;24553;51.640;-0.752;2023-02-15T03:23:22;101704.75;;;-0.41;100.00
38812;BME280;24553;51.640;-0.752;2023-02-15T03:26:02;101695.50;;;-0.47;100.00
38812;BME280;24553;51.640;-0.752;2023-02-15T03:28:36;101695.34;;;-0.43;100.00
38812;BME280;24553;51.640;-0.752;2023-02-15T03:31:05;101685.00;;;-0.45;100.00
38812;BME280;24553;51.640;-0.752;2023-02-15T03:33:33;101689.63;;;-0.50;100.00
38812;BME280;24553;51.640;-0.752;2023-02-15T03:36:13;101679.97;;;-0.48;100.00
38812;BME280;24553;51.640;-0.752;2023-02-15T03:41:34;101678.44;;;-0.52;100.00
38812;BME280;24553;51.640;-0.752;2023-02-15T03:44:08;101667.38;;;-0.56;100.00
38812;BME280;24553;51.640;-0.752;2023-02-15T03:47:04;101673.50;;;-0.57;100.00
38812;BME280;24553;51.640;-0.752;2023-02-15T03:52:53;101669.72;;;-0.51;100.00
38812;BME280;24553;51.640;-0.752;2023-02-15T03:55:19;101666.38;;;-0.53;100.00
38812;BME280;24553;51.640;-0.752;2023-02-15T03:57:45;101662.44;;;-0.60;100.00
38812;BME280;24553;51.640;-0.752;2023-02-15T04:00:30;101669.72;;;-0.51;100.00
38812;BME280;24553;51.640;-0.752;2023-02-15T04:05:48;101658.56;;;-0.39;100.00
38812;BME280;24553;51.640;-0.752;2023-02-15T04:08:13;101663.69;;;-0.37;100.00
38812;BME280;24553;51.640;-0.752;2023-02-15T04:10:39;101675.88;;;-0.38;100.00
38812;BME280;24553;51.640;-0.752;2023-02-15T04:13:31;101670.88;;;-0.41;100.00
38812;BME280;24553;51.640;-0.752;2023-02-15T04:15:56;101664.97;;;-0.45;100.00
38812;BME280;24553;51.640;-0.752;2023-02-15T04:18:39;101655.75;;;-0.50;100.00
38812;BME280;24553;51.640;-0.752;2023-02-15T04:21:25;101650.63;;;-0.52;100.00
38812;BME280;24553;51.640;-0.752;2023-02-15T04:24:10;101657.59;;;-0.52;100.00
38812;BME280;24553;51.640;-0.752;2023-02-15T04:26:54;101644.69;;;-0.54;100.00
38812;BME280;24553;51.640;-0.752;2023-02-15T04:29:22;101643.84;;;-0.54;100.00
38812;BME280;24553;51.640;-0.752;2023-02-15T04:31:48;101637.06;;;-0.42;100.00
38812;BME280;24553;51.640;-0.752;2023-02-15T04:34:14;101639.22;;;-0.35;100.00
38812;BME280;24553;51.640;-0.752;2023-02-15T04:36:39;101634.19;;;-0.38;100.00
38812;BME280;24553;51.640;-0.752;2023-02-15T04:39:06;101634.19;;;-0.38;100.00
38812;BME280;24553;51.640;-0.752;2023-02-15T04:41:32;101639.47;;;-0.39;100.00
38812;BME280;24553;51.640;-0.752;2023-02-15T04:43:58;101636.56;;;-0.49;100.00
38812;BME280;24553;51.640;-0.752;2023-02-15T04:46:24;101626.84;;;-0.46;100.00
38812;BME280;24553;51.640;-0.752;2023-02-15T04:48:50;101626.91;;;-0.47;100.00
38812;BME280;24553;51.640;-0.752;2023-02-15T04:51:15;101630.00;;;-0.40;100.00
38812;BME280;24553;51.640;-0.752;2023-02-15T04:53:42;101629.06;;;-0.39;100.00
38812;BME280;24553;51.640;-0.752;2023-02-15T04:56:07;101616.84;;;-0.39;100.00
38812;BME280;24553;51.640;-0.752;2023-02-15T04:58:32;101617.53;;;-0.35;100.00
38812;BME280;24553;51.640;-0.752;2023-02-15T05:00:58;101615.94;;;-0.38;100.00
38812;BME280;24553;51.640;-0.752;2023-02-15T05:03:24;101617.81;;;-0.40;100.00
38812;BME280;24553;51.640;-0.752;2023-02-15T05:05:50;101622.38;;;-0.43;100.00
38812;BME280;24553;51.640;-0.752;2023-02-15T05:08:16;101612.41;;;-0.51;100.00
38812;BME280;24553;51.640;-0.752;2023-02-15T05:10:41;101614.00;;;-0.49;100.00
38812;BME280;24553;51.640;-0.752;2023-02-15T05:13:07;101609.97;;;-0.54;100.00
38812;BME280;24553;51.640;-0.752;2023-02-15T05:15:33;101614.81;;;-0.48;100.00
38812;BME280;24553;51.640;-0.752;2023-02-15T05:17:58;101605.31;;;-0.49;100.00
38812;BME280;24553;51.640;-0.752;2023-02-15T05:20:23;101610.72;;;-0.52;100.00
38812;BME280;24553;51.640;-0.752;2023-02-15T05:22:53;101604.75;;;-0.54;100.00
38812;BME280;24553;51.640;-0.752;2023-02-15T05:25:18;101598.81;;;-0.56;100.00
38812;BME280;24553;51.640;-0.752;2023-02-15T05:28:02;101600.84;;;-0.61;100.00
38812;BME280;24553;51.640;-0.752;2023-02-15T05:30:50;101606.06;;;-0.61;100.00
38812;BME280;24553;51.640;-0.752;2023-02-15T05:33:16;101611.09;;;-0.58;100.00
38812;BME280;24553;51.640;-0.752;2023-02-15T05:35:42;101604.75;;;-0.54;100.00
38812;BME280;24553;51.640;-0.752;2023-02-15T05:38:07;101602.34;;;-0.57;100.00
38812;BME280;24553;51.640;-0.752;2023-02-15T05:40:33;101598.13;;;-0.60;100.00
38812;BME280;24553;51.640;-0.752;2023-02-15T05:42:58;101596.41;;;-0.59;100.00
38812;BME280;24553;51.640;-0.752;2023-02-15T05:45:24;101603.16;;;-0.57;100.00
38812;BME280;24553;51.640;-0.752;2023-02-15T05:47:49;101591.84;;;-0.56;100.00
38812;BME280;24553;51.640;-0.752;2023-02-15T05:50:15;101590.13;;;-0.57;100.00
38812;BME280;24553;51.640;-0.752;2023-02-15T05:52:40;101593.22;;;-0.64;100.00
38812;BME280;24553;51.640;-0.752;2023-02-15T05:55:06;101592.47;;;-0.67;100.00
38812;BME280;24553;51.640;-0.752;2023-02-15T05:57:34;101584.41;;;-0.62;100.00
38812;BME280;24553;51.640;-0.752;2023-02-15T06:00:00;101580.84;;;-0.61;100.00
38812;BME280;24553;51.640;-0.752;2023-02-15T06:02:25;101583.00;;;-0.53;100.00
38812;BME280;24553;51.640;-0.752;2023-02-15T06:04:51;101575.19;;;-0.53;100.00
38812;BME280;24553;51.640;-0.752;2023-02-15T06:07:16;101568.38;;;-0.56;100.00
38812;BME280;24553;51.640;-0.752;2023-02-15T06:09:41;101577.97;;;-0.56;100.00
38812;BME280;24553;51.640;-0.752;2023-02-15T06:12:07;101579.63;;;-0.55;100.00
38812;BME280;24553;51.640;-0.752;2023-02-15T06:14:32;101583.06;;;-0.55;100.00
38812;BME280;24553;51.640;-0.752;2023-02-15T06:16:57;101574.44;;;-0.55;100.00
38812;BME280;24553;51.640;-0.752;2023-02-15T06:19:23;101580.66;;;-0.58;100.00
38812;BME280;24553;51.640;-0.752;2023-02-15T06:21:49;101574.81;;;-0.61;100.00
38812;BME280;24553;51.640;-0.752;2023-02-15T06:24:14;101564.72;;;-0.68;100.00
38812;BME280;24553;51.640;-0.752;2023-02-15T06:26:40;101574.81;;;-0.61;100.00
38812;BME280;24553;51.640;-0.752;2023-02-15T06:29:05;101574.69;;;-0.60;100.00
38812;BME280;24553;51.640;-0.752;2023-02-15T06:31:30;101576.38;;;-0.59;100.00
38812;BME280;24553;51.640;-0.752;2023-02-15T06:33:56;101583.06;;;-0.69;100.00
38812;BME280;24553;51.640;-0.752;2023-02-15T06:36:29;101580.00;;;-0.76;100.00
38812;BME280;24553;51.640;-0.752;2023-02-15T06:38:55;101569.69;;;-0.77;100.00
38812;BME280;24553;51.640;-0.752;2023-02-15T06:41:21;101583.41;;;-0.75;100.00
38812;BME280;24553;51.640;-0.752;2023-02-15T06:43:46;101587.97;;;-0.79;100.00
38812;BME280;24553;51.640;-0.752;2023-02-15T06:46:11;101585.38;;;-0.79;100.00
38812;BME280;24553;51.640;-0.752;2023-02-15T06:48:37;101598.31;;;-0.77;100.00
38812;BME280;24553;51.640;-0.752;2023-02-15T06:51:02;101596.66;;;-0.64;100.00
38812;BME280;24553;51.640;-0.752;2023-02-15T06:53:28;101596.19;;;-0.71;100.00
38812;BME280;24553;51.640;-0.752;2023-02-15T06:56:03;101598.41;;;-0.79;100.00
38812;BME280;24553;51.640;-0.752;2023-02-15T06:58:32;101591.34;;;-0.77;100.00
38812;BME280;24553;51.640;-0.752;2023-02-15T07:00:58;101589.50;;;-0.75;100.00
38812;BME280;24553;51.640;-0.752;2023-02-15T07:03:23;101594.06;;;-0.64;100.00
38812;BME280;24553;51.640;-0.752;2023-02-15T07:05:54;101594.97;;;-0.65;100.00
38812;BME280;24553;51.640;-0.752;2023-02-15T07:08:19;101596.84;;;-0.67;100.00
38812;BME280;24553;51.640;-0.752;2023-02-15T07:10:45;101594.13;;;-0.66;100.00
38812;BME280;24553;51.640;-0.752;2023-02-15T07:13:10;101602.25;;;-0.56;100.00
38812;BME280;24553;51.640;-0.752;2023-02-15T07:15:36;101597.50;;;-0.49;100.00
38812;BME280;24553;51.640;-0.752;2023-02-15T07:18:01;101601.78;;;-0.48;100.00
38812;BME280;24553;51.640;-0.752;2023-02-15T07:20:26;101600.09;;;-0.49;100.00
38812;BME280;24553;51.640;-0.752;2023-02-15T07:22:51;101602.91;;;-0.52;100.00
38812;BME280;24553;51.640;-0.752;2023-02-15T07:25:17;101620.03;;;-0.48;100.00
38812;BME280;24553;51.640;-0.752;2023-02-15T07:27:43;101622.06;;;-0.53;100.00
38812;BME280;24553;51.640;-0.752;2023-02-15T07:30:11;101619.00;;;-0.46;100.00
38812;BME280;24553;51.640;-0.752;2023-02-15T07:32:37;101622.63;;;-0.34;100.00
38812;BME280;24553;51.640;-0.752;2023-02-15T07:35:22;101617.41;;;-0.34;100.00
38812;BME280;24553;51.640;-0.752;2023-02-15T07:37:47;101627.13;;;-0.36;100.00
38812;BME280;24553;51.640;-0.752;2023-02-15T07:40:13;101621.16;;;-0.38;100.00
38812;BME280;24553;51.640;-0.752;2023-02-15T07:42:38;101618.28;;;-0.33;100.00
38812;BME280;24553;51.640;-0.752;2023-02-15T07:45:04;101609.88;;;-0.24;100.00
38812;BME280;24553;51.640;-0.752;2023-02-15T07:47:29;101610.25;;;-0.16;100.00
38812;BME280;24553;51.640;-0.752;2023-02-15T07:49:54;101609.34;;;-0.15;100.00
38812;BME280;24553;51.640;-0.752;2023-02-15T07:52:20;101617.72;;;-0.10;100.00
38812;BME280;24553;51.640;-0.752;2023-02-15T07:54:45;101617.59;;;-0.08;100.00
38812;BME280;24553;51.640;-0.752;2023-02-15T07:57:10;101617.25;;;-0.02;100.00
38812;BME280;24553;51.640;-0.752;2023-02-15T07:59:36;101622.63;;;0.09;100.00
38812;BME280;24553;51.640;-0.752;2023-02-15T08:02:01;101621.59;;;0.12;100.00
38812;BME280;24553;51.640;-0.752;2023-02-15T08:04:26;101618.31;;;0.22;100.00
38812;BME280;24553;51.640;-0.752;2023-02-15T08:06:53;101621.75;;;0.23;100.00
38812;BME280;24553;51.640;-0.752;2023-02-15T08:09:19;101613.09;;;0.22;100.00
38812;BME280;24553;51.640;-0.752;2023-02-15T08:11:46;101612.53;;;0.32;100.00
38812;BME280;24553;51.640;-0.752;2023-02-15T08:14:14;101614.13;;;0.34;100.00
38812;BME280;24553;51.640;-0.752;2023-02-15T08:21:49;101615.28;;;0.43;100.00
38812;BME280;24553;51.640;-0.752;2023-02-15T08:24:17;101613.88;;;0.52;100.00
38812;BME280;24553;51.640;-0.752;2023-02-15T08:26:43;101605.38;;;0.62;100.00
38812;BME280;24553;51.640;-0.752;2023-02-15T08:29:12;101596.84;;;0.73;100.00
38812;BME280;24553;51.640;-0.752;2023-02-15T08:31:38;101592.69;;;0.83;100.00
38812;BME280;24553;51.640;-0.752;2023-02-15T08:34:05;101591.88;;;0.96;100.00
38812;BME280;24553;51.640;-0.752;2023-02-15T08:36:31;101595.44;;;1.07;100.00
38812;BME280;24553;51.640;-0.752;2023-02-15T08:38:58;101592.53;;;1.25;100.00
38812;BME280;24553;51.640;-0.752;2023-02-15T08:41:30;101599.22;;;1.29;100.00
38812;BME280;24553;51.640;-0.752;2023-02-15T08:43:59;101597.56;;;1.53;100.00
38812;BME280;24553;51.640;-0.752;2023-02-15T08:46:27;101591.50;;;1.66;100.00
38812;BME280;24553;51.640;-0.752;2023-02-15T08:48:52;101589.47;;;1.82;100.00
38812;BME280;24553;51.640;-0.752;2023-02-15T08:51:21;101592.38;;;2.03;100.00
38812;BME280;24553;51.640;-0.752;2023-02-15T08:53:50;101593.06;;;2.18;100.00
38812;BME280;24553;51.640;-0.752;2023-02-15T08:56:18;101586.19;;;2.17;100.00
38812;BME280;24553;51.640;-0.752;2023-02-15T08:58:43;101574.66;;;2.20;100.00
38812;BME280;24553;51.640;-0.752;2023-02-15T09:01:11;101586.88;;;2.19;100.00
38812;BME280;24553;51.640;-0.752;2023-02-15T09:03:37;101581.44;;;2.22;100.00
38812;BME280;24553;51.640;-0.752;2023-02-15T09:06:03;101582.28;;;2.23;100.00
38812;BME280;24553;51.640;-0.752;2023-02-15T09:08:29;101585.28;;;2.29;100.00
38812;BME280;24553;51.640;-0.752;2023-02-15T09:11:04;101587.38;;;2.24;100.00
38812;BME280;24553;51.640;-0.752;2023-02-15T09:13:30;101594.31;;;2.25;100.00
38812;BME280;24553;51.640;-0.752;2023-02-15T09:16:03;101590.31;;;2.32;100.00
38812;BME280;24553;51.640;-0.752;2023-02-15T09:18:31;101577.28;;;2.44;100.00
38812;BME280;24553;51.640;-0.752;2023-02-15T09:20:57;101572.59;;;2.60;100.00
38812;BME280;24553;51.640;-0.752;2023-02-15T09:23:28;101577.81;;;2.84;100.00
38812;BME280;24553;51.640;-0.752;2023-02-15T09:25:53;101579.72;;;2.93;100.00
38812;BME280;24553;51.640;-0.752;2023-02-15T09:28:18;101574.41;;;3.06;100.00
38812;BME280;24553;51.640;-0.752;2023-02-15T09:30:44;101580.00;;;2.66;100.00
38812;BME280;24553;51.640;-0.752;2023-02-15T09:33:09;101574.91;;;2.76;100.00
38812;BME280;24553;51.640;-0.752;2023-02-15T09:35:34;101564.47;;;3.34;100.00
38812;BME280;24553;51.640;-0.752;2023-02-15T09:38:00;101558.94;;;2.68;100.00
38812;BME280;24553;51.640;-0.752;2023-02-15T09:40:26;101563.19;;;3.62;100.00
38812;BME280;24553;51.640;-0.752;2023-02-15T09:43:17;101571.47;;;3.22;100.00
38812;BME280;24553;51.640;-0.752;2023-02-15T09:46:08;101586.69;;;3.05;100.00
38812;BME280;24553;51.640;-0.752;2023-02-15T09:48:41;101575.56;;;3.71;100.00
38812;BME280;24553;51.640;-0.752;2023-02-15T09:51:29;101587.38;;;3.54;100.00
38812;BME280;24553;51.640;-0.752;2023-02-15T09:56:39;101603.59;;;5.12;100.00
38812;BME280;24553;51.640;-0.752;2023-02-15T09:59:12;101607.22;;;5.21;100.00
38812;BME280;24553;51.640;-0.752;2023-02-15T10:12:36;101600.53;;;5.89;100.00
38812;BME280;24553;51.640;-0.752;2023-02-15T10:15:22;101604.22;;;6.08;100.00
38812;BME280;24553;51.640;-0.752;2023-02-15T10:21:11;101613.47;;;6.52;100.00
38812;BME280;24553;51.640;-0.752;2023-02-15T10:24:04;101608.88;;;6.54;100.00
38812;BME280;24553;51.640;-0.752;2023-02-15T10:26:47;101602.50;;;6.86;100.00
38812;BME280;24553;51.640;-0.752;2023-02-15T10:32:23;101594.59;;;6.96;100.00
38812;BME280;24553;51.640;-0.752;2023-02-15T10:35:08;101592.09;;;7.14;100.00
38812;BME280;24553;51.640;-0.752;2023-02-15T10:40:25;101583.69;;;7.38;100.00
38812;BME280;24553;51.640;-0.752;2023-02-15T10:43:46;101577.69;;;7.55;100.00
38812;BME280;24553;51.640;-0.752;2023-02-15T10:46:02;101568.66;;;7.85;100.00
38812;BME280;24553;51.640;-0.752;2023-02-15T10:48:57;101568.38;;;8.34;100.00
38812;BME280;24553;51.640;-0.752;2023-02-15T10:54:32;101541.84;;;8.98;100.00
38812;BME280;24553;51.640;-0.752;2023-02-15T10:57:23;101534.63;;;8.82;100.00
38812;BME280;24553;51.640;-0.752;2023-02-15T11:05:34;101509.59;;;10.05;100.00
38812;BME280;24553;51.640;-0.752;2023-02-15T11:08:04;101510.97;;;10.17;100.00
38812;BME280;24553;51.640;-0.752;2023-02-15T11:11:22;101509.69;;;10.46;100.00
38812;BME280;24553;51.640;-0.752;2023-02-15T11:13:31;101517.97;;;10.67;100.00
38812;BME280;24553;51.640;-0.752;2023-02-15T11:16:03;101519.47;;;10.70;100.00
38812;BME280;24553;51.640;-0.752;2023-02-15T11:21:13;101520.47;;;10.69;100.00
38812;BME280;24553;51.640;-0.752;2023-02-15T11:23:44;101526.25;;;10.81;100.00
38812;BME280;24553;51.640;-0.752;2023-02-15T11:26:34;101517.88;;;11.25;100.00
38812;BME280;24553;51.640;-0.752;2023-02-15T11:29:10;101501.59;;;11.36;100.00
38812;BME280;24553;51.640;-0.752;2023-02-15T11:31:46;101485.94;;;11.49;100.00
38812;BME280;24553;51.640;-0.752;2023-02-15T11:34:29;101487.81;;;11.72;100.00
38812;BME280;24553;51.640;-0.752;2023-02-15T11:37:01;101471.84;;;11.49;100.00
38812;BME280;24553;51.640;-0.752;2023-02-15T11:39:30;101464.56;;;11.74;100.00
38812;BME280;24553;51.640;-0.752;2023-02-15T11:42:01;101454.91;;;11.81;100.00
38812;BME280;24553;51.640;-0.752;2023-02-15T11:44:37;101458.84;;;11.93;100.00
38812;BME280;24553;51.640;-0.752;2023-02-15T11:47:12;101445.44;;;11.87;100.00
38812;BME280;24553;51.640;-0.752;2023-02-15T11:49:38;101438.09;;;11.89;100.00
38812;BME280;24553;51.640;-0.752;2023-02-15T11:52:12;101437.47;;;12.10;100.00
38812;BME280;24553;51.640;-0.752;2023-02-15T11:54:46;101435.38;;;12.20;100.00
38812;BME280;24553;51.640;-0.752;2023-02-15T11:59:49;101433.81;;;12.49;100.00
38812;BME280;24553;51.640;-0.752;2023-02-15T12:02:20;101423.75;;;12.59;100.00
38812;BME280;24553;51.640;-0.752;2023-02-15T12:05:13;101426.09;;;12.92;100.00
38812;BME280;24553;51.640;-0.752;2023-02-15T12:07:45;101433.31;;;13.13;100.00
38812;BME280;24553;51.640;-0.752;2023-02-15T12:10:24;101421.47;;;13.15;100.00
38812;BME280;24553;51.640;-0.752;2023-02-15T12:15:42;101419.34;;;13.25;100.00
38812;BME280;24553;51.640;-0.752;2023-02-15T12:18:34;101407.13;;;13.16;100.00
38812;BME280;24553;51.640;-0.752;2023-02-15T12:21:10;101405.31;;;13.31;100.00
38812;BME280;24553;51.640;-0.752;2023-02-15T12:23:52;101403.72;;;13.52;100.00
38812;BME280;24553;51.640;-0.752;2023-02-15T12:26:31;101402.91;;;13.73;100.00
38812;BME280;24553;51.640;-0.752;2023-02-15T12:29:00;101398.34;;;13.67;100.00
38812;BME280;24553;51.640;-0.752;2023-02-15T12:31:47;101404.06;;;13.85;100.00
38812;BME280;24553;51.640;-0.752;2023-02-15T12:36:48;101399.44;;;14.15;100.00
38812;BME280;24553;51.640;-0.752;2023-02-15T12:47:03;101391.38;;;14.37;100.00
38812;BME280;24553;51.640;-0.752;2023-02-15T12:49:34;101386.25;;;14.64;100.00
38812;BME280;24553;51.640;-0.752;2023-02-15T12:52:02;101386.38;;;14.77;100.00
38812;BME280;24553;51.640;-0.752;2023-02-15T12:54:31;101386.03;;;14.93;100.00
38812;BME280;24553;51.640;-0.752;2023-02-15T12:56:58;101383.78;;;14.97;100.00
38812;BME280;24553;51.640;-0.752;2023-02-15T12:59:24;101369.66;;;15.10;100.00
38812;BME280;24553;51.640;-0.752;2023-02-15T13:01:52;101367.66;;;15.25;100.00
38812;BME280;24553;51.640;-0.752;2023-02-15T13:04:24;101366.88;;;15.31;100.00
38812;BME280;24553;51.640;-0.752;2023-02-15T13:06:53;101368.78;;;15.51;100.00
38812;BME280;24553;51.640;-0.752;2023-02-15T13:11:50;101364.50;;;15.63;100.00
38812;BME280;24553;51.640;-0.752;2023-02-15T13:14:20;101360.13;;;15.48;100.00
38812;BME280;24553;51.640;-0.752;2023-02-15T13:16:50;101362.00;;;15.55;100.00
38812;BME280;24553;51.640;-0.752;2023-02-15T13:19:19;101376.25;;;15.82;100.00
38812;BME280;24553;51.640;-0.752;2023-02-15T13:21:50;101373.78;;;15.74;100.00
38812;BME280;24553;51.640;-0.752;2023-02-15T13:26:55;101387.13;;;15.67;100.00
38812;BME280;24553;51.640;-0.752;2023-02-15T13:29:25;101381.75;;;15.60;100.00
38812;BME280;24553;51.640;-0.752;2023-02-15T13:31:52;101367.38;;;15.68;100.00
38812;BME280;24553;51.640;-0.752;2023-02-15T13:34:28;101381.41;;;15.77;100.00
38812;BME280;24553;51.640;-0.752;2023-02-15T13:39:44;101361.25;;;15.81;100.00
38812;BME280;24553;51.640;-0.752;2023-02-15T13:47:39;101339.44;;;15.77;100.00
38812;BME280;24553;51.640;-0.752;2023-02-15T13:52:47;101329.94;;;15.68;100.00
38812;BME280;24553;51.640;-0.752;2023-02-15T14:00:47;101329.38;;;15.92;100.00
38812;BME280;24553;51.640;-0.752;2023-02-15T14:23:20;101311.88;;;16.17;100.00
38812;BME280;24553;51.640;-0.752;2023-02-15T14:26:02;101318.44;;;16.21;100.00
38812;BME280;24553;51.640;-0.752;2023-02-15T14:31:25;101312.25;;;16.33;100.00
38812;BME280;24553;51.640;-0.752;2023-02-15T14:33:55;101315.38;;;16.17;100.00
38812;BME280;24553;51.640;-0.752;2023-02-15T14:36:22;101311.06;;;16.16;100.00
38812;BME280;24553;51.640;-0.752;2023-02-15T14:42:25;101305.53;;;16.11;100.00
38812;BME280;24553;51.640;-0.752;2023-02-15T14:47:42;101305.72;;;15.96;100.00
38812;BME280;24553;51.640;-0.752;2023-02-15T14:53:17;101305.09;;;15.81;100.00
38812;BME280;24553;51.640;-0.752;2023-02-15T14:56:05;101318.22;;;15.62;100.00
38812;BME280;24553;51.640;-0.752;2023-02-15T14:58:32;101321.09;;;15.54;100.00
38812;BME280;24553;51.640;-0.752;2023-02-15T15:01:06;101326.66;;;15.59;100.00
38812;BME280;24553;51.640;-0.752;2023-02-15T15:03:32;101321.94;;;15.68;100.00
38812;BME280;24553;51.640;-0.752;2023-02-15T15:05:59;101322.75;;;15.55;100.00
38812;BME280;24553;51.640;-0.752;2023-02-15T15:08:38;101339.59;;;14.53;100.00
38812;BME280;24553;51.640;-0.752;2023-02-15T15:19:01;101327.09;;;15.01;100.00
38812;BME280;24553;51.640;-0.752;2023-02-15T15:24:45;101329.44;;;14.13;100.00